Taneytown, Maryland
Current Conditions -  °F | °C
As of 4:45 AM on Tuesday 21 Oct 2014 (Local Time) from KDMW Reporting Station
Overcast Overcast  
Wind Chill: 52°   Ceiling: 7000
Heat Index: 52°   Visibility: 10mi
Dew Point: 48°   Wind: 0mph
Humidity: 88%   Direction: NA
Pressure: 29.85"   Gusts: NA
Location:  39.66°N, 77.17°W
Report Text: KDMW 210845Z AUTO 00000KT 10SM BKN070 OVC085 11/09 A2985 RMK AO2
Loading
Personal Weather Stations






























Interactive Weather Map
Tropical Storm Tracking
New forecast layout! Learn more

10-Day Weather Forecast

Advertisements
Track Severe Weather on mobile